sensor_id;sensor_type;location;lat;lon;timestamp;pressure;altitude;pressure_sealevel;temperature;humidity
10079;BME280;5078;42.544;22.966;2023-06-22T00:02:01;94323.09;;;19.07;100.00
10079;BME280;5078;42.544;22.966;2023-06-22T00:04:28;94324.03;;;19.19;100.00
10079;BME280;5078;42.544;22.966;2023-06-22T00:06:56;94310.44;;;19.14;100.00
10079;BME280;5078;42.544;22.966;2023-06-22T00:09:22;94315.72;;;18.95;100.00
10079;BME280;5078;42.544;22.966;2023-06-22T00:11:49;94312.28;;;18.82;100.00
10079;BME280;5078;42.544;22.966;2023-06-22T00:14:16;94316.72;;;18.56;100.00
10079;BME280;5078;42.544;22.966;2023-06-22T00:16:42;94312.72;;;18.72;100.00
10079;BME280;5078;42.544;22.966;2023-06-22T00:19:09;94311.09;;;18.64;100.00
10079;BME280;5078;42.544;22.966;2023-06-22T00:21:37;94308.59;;;18.76;100.00
10079;BME280;5078;42.544;22.966;2023-06-22T00:24:06;94317.25;;;18.85;100.00
10079;BME280;5078;42.544;22.966;2023-06-22T00:26:32;94308.09;;;18.92;100.00
10079;BME280;5078;42.544;22.966;2023-06-22T00:28:59;94305.97;;;19.01;99.01
10079;BME280;5078;42.544;22.966;2023-06-22T00:31:26;94308.94;;;18.93;98.32
10079;BME280;5078;42.544;22.966;2023-06-22T00:33:53;94298.47;;;18.71;100.00
10079;BME280;5078;42.544;22.966;2023-06-22T00:36:19;94294.06;;;18.90;98.67
10079;BME280;5078;42.544;22.966;2023-06-22T00:38:46;94285.66;;;18.80;98.47
10079;BME280;5078;42.544;22.966;2023-06-22T00:41:17;94291.84;;;18.36;100.00
10079;BME280;5078;42.544;22.966;2023-06-22T00:43:45;94295.28;;;17.98;100.00
10079;BME280;5078;42.544;22.966;2023-06-22T00:46:11;94307.03;;;18.03;100.00
10079;BME280;5078;42.544;22.966;2023-06-22T00:48:39;94301.59;;;18.17;100.00
10079;BME280;5078;42.544;22.966;2023-06-22T00:51:07;94294.00;;;18.07;100.00
10079;BME280;5078;42.544;22.966;2023-06-22T00:53:34;94276.06;;;18.07;100.00
10079;BME280;5078;42.544;22.966;2023-06-22T00:56:03;94285.56;;;18.03;100.00
10079;BME280;5078;42.544;22.966;2023-06-22T00:58:32;94294.66;;;17.76;100.00
10079;BME280;5078;42.544;22.966;2023-06-22T01:00:59;94304.19;;;17.65;100.00
10079;BME280;5078;42.544;22.966;2023-06-22T01:03:26;94312.66;;;17.55;100.00
10079;BME280;5078;42.544;22.966;2023-06-22T01:05:56;94314.28;;;17.36;100.00
10079;BME280;5078;42.544;22.966;2023-06-22T01:08:30;94316.34;;;17.21;100.00
10079;BME280;5078;42.544;22.966;2023-06-22T01:11:08;94308.13;;;17.42;100.00
10079;BME280;5078;42.544;22.966;2023-06-22T01:13:45;94317.16;;;17.61;100.00
10079;BME280;5078;42.544;22.966;2023-06-22T01:16:15;94313.47;;;17.29;100.00
10079;BME280;5078;42.544;22.966;2023-06-22T01:18:44;94311.22;;;17.13;100.00
10079;BME280;5078;42.544;22.966;2023-06-22T01:21:16;94313.47;;;17.29;100.00
10079;BME280;5078;42.544;22.966;2023-06-22T01:23:54;94315.94;;;17.44;100.00
10079;BME280;5078;42.544;22.966;2023-06-22T01:26:33;94316.34;;;17.61;100.00
10079;BME280;5078;42.544;22.966;2023-06-22T01:29:04;94326.03;;;17.29;100.00
10079;BME280;5078;42.544;22.966;2023-06-22T01:31:33;94332.22;;;17.49;100.00
10079;BME280;5078;42.544;22.966;2023-06-22T01:34:02;94330.38;;;17.56;100.00
10079;BME280;5078;42.544;22.966;2023-06-22T01:36:31;94333.69;;;17.38;100.00
10079;BME280;5078;42.544;22.966;2023-06-22T01:38:59;94333.06;;;17.36;100.00
10079;BME280;5078;42.544;22.966;2023-06-22T01:41:28;94332.03;;;17.24;100.00
10079;BME280;5078;42.544;22.966;2023-06-22T01:43:56;94330.16;;;17.31;100.00
10079;BME280;5078;42.544;22.966;2023-06-22T01:46:25;94334.50;;;17.45;100.00
10079;BME280;5078;42.544;22.966;2023-06-22T01:48:52;94339.03;;;17.58;100.00
10079;BME280;5078;42.544;22.966;2023-06-22T01:51:19;94335.72;;;17.30;100.00
10079;BME280;5078;42.544;22.966;2023-06-22T01:53:46;94333.22;;;17.01;100.00
10079;BME280;5078;42.544;22.966;2023-06-22T01:56:16;94343.53;;;17.04;100.00
10079;BME280;5078;42.544;22.966;2023-06-22T01:58:48;94336.94;;;17.07;100.00
10079;BME280;5078;42.544;22.966;2023-06-22T02:01:20;94337.38;;;16.97;100.00
10079;BME280;5078;42.544;22.966;2023-06-22T02:03:56;94334.88;;;16.96;100.00
10079;BME280;5078;42.544;22.966;2023-06-22T02:06:27;94309.25;;;16.73;100.00
10079;BME280;5078;42.544;22.966;2023-06-22T02:08:57;94347.41;;;16.82;100.00
10079;BME280;5078;42.544;22.966;2023-06-22T02:11:26;94347.44;;;16.95;100.00
10079;BME280;5078;42.544;22.966;2023-06-22T02:13:55;94347.88;;;17.19;100.00
10079;BME280;5078;42.544;22.966;2023-06-22T02:16:23;94355.53;;;17.29;100.00
10079;BME280;5078;42.544;22.966;2023-06-22T02:18:51;94338.63;;;17.35;100.00
10079;BME280;5078;42.544;22.966;2023-06-22T02:21:18;94337.38;;;17.44;100.00
10079;BME280;5078;42.544;22.966;2023-06-22T02:23:45;94342.34;;;17.54;100.00
10079;BME280;5078;42.544;22.966;2023-06-22T02:26:12;94342.34;;;17.40;100.00
10079;BME280;5078;42.544;22.966;2023-06-22T02:28:39;94339.88;;;17.45;100.00
10079;BME280;5078;42.544;22.966;2023-06-22T02:31:06;94344.41;;;17.52;100.00
10079;BME280;5078;42.544;22.966;2023-06-22T02:33:32;94346.44;;;17.50;100.00
10079;BME280;5078;42.544;22.966;2023-06-22T02:36:01;94346.88;;;17.46;100.00
10079;BME280;5078;42.544;22.966;2023-06-22T02:38:30;94337.59;;;17.62;100.00
10079;BME280;5078;42.544;22.966;2023-06-22T02:40:58;94335.34;;;17.53;100.00
10079;BME280;5078;42.544;22.966;2023-06-22T02:43:25;94328.72;;;17.29;100.00
10079;BME280;5078;42.544;22.966;2023-06-22T02:45:52;94336.78;;;17.55;100.00
10079;BME280;5078;42.544;22.966;2023-06-22T02:48:19;94329.56;;;17.62;100.00
10079;BME280;5078;42.544;22.966;2023-06-22T02:50:46;94329.13;;;17.12;100.00
10079;BME280;5078;42.544;22.966;2023-06-22T02:53:14;94323.56;;;17.14;100.00
10079;BME280;5078;42.544;22.966;2023-06-22T02:55:40;94342.97;;;17.36;100.00
10079;BME280;5078;42.544;22.966;2023-06-22T02:58:07;94341.31;;;17.55;100.00
10079;BME280;5078;42.544;22.966;2023-06-22T03:00:34;94333.06;;;17.63;100.00
10079;BME280;5078;42.544;22.966;2023-06-22T03:03:01;94325.41;;;17.86;100.00
10079;BME280;5078;42.544;22.966;2023-06-22T03:05:27;94341.09;;;17.96;100.00
10079;BME280;5078;42.544;22.966;2023-06-22T03:07:54;94349.97;;;17.83;100.00
10079;BME280;5078;42.544;22.966;2023-06-22T03:10:22;94346.88;;;17.93;100.00
10079;BME280;5078;42.544;22.966;2023-06-22T03:12:49;94357.19;;;17.96;100.00
10079;BME280;5078;42.544;22.966;2023-06-22T03:15:16;94355.13;;;17.72;100.00
10079;BME280;5078;42.544;22.966;2023-06-22T03:17:43;94355.53;;;17.88;100.00
10079;BME280;5078;42.544;22.966;2023-06-22T03:20:11;94362.56;;;17.89;100.00
10079;BME280;5078;42.544;22.966;2023-06-22T03:22:38;94355.53;;;17.42;100.00
10079;BME280;5078;42.544;22.966;2023-06-22T03:25:06;94356.16;;;17.71;100.00
10079;BME280;5078;42.544;22.966;2023-06-22T03:27:37;94344.63;;;17.83;100.00
10079;BME280;5078;42.544;22.966;2023-06-22T03:30:05;94368.31;;;17.66;100.00
10079;BME280;5078;42.544;22.966;2023-06-22T03:32:32;94381.56;;;17.81;100.00
10079;BME280;5078;42.544;22.966;2023-06-22T03:34:59;94378.44;;;17.71;100.00
10079;BME280;5078;42.544;22.966;2023-06-22T03:37:26;94363.78;;;17.54;100.00
10079;BME280;5078;42.544;22.966;2023-06-22T03:39:53;94376.19;;;17.88;100.00
10079;BME280;5078;42.544;22.966;2023-06-22T03:42:20;94384.84;;;18.03;100.00
10079;BME280;5078;42.544;22.966;2023-06-22T03:44:48;94393.59;;;18.50;100.00
10079;BME280;5078;42.544;22.966;2023-06-22T03:47:15;94391.28;;;18.67;100.00
10079;BME280;5078;42.544;22.966;2023-06-22T03:49:42;94394.22;;;19.04;100.00
10079;BME280;5078;42.544;22.966;2023-06-22T03:52:08;94388.81;;;19.11;100.00
10079;BME280;5078;42.544;22.966;2023-06-22T03:54:36;94388.13;;;18.84;100.00
10079;BME280;5078;42.544;22.966;2023-06-22T03:57:03;94388.28;;;18.95;100.00
10079;BME280;5078;42.544;22.966;2023-06-22T03:59:30;94389.38;;;18.88;100.00
10079;BME280;5078;42.544;22.966;2023-06-22T04:01:59;94381.56;;;18.80;100.00
10079;BME280;5078;42.544;22.966;2023-06-22T04:04:26;94376.94;;;18.93;100.00
10079;BME280;5078;42.544;22.966;2023-06-22T04:06:52;94374.22;;;19.00;100.00
10079;BME280;5078;42.544;22.966;2023-06-22T04:09:19;94375.78;;;18.76;100.00
10079;BME280;5078;42.544;22.966;2023-06-22T04:11:47;94377.75;;;18.94;100.00
10079;BME280;5078;42.544;22.966;2023-06-22T04:14:13;94372.88;;;19.16;100.00
10079;BME280;5078;42.544;22.966;2023-06-22T04:16:40;94364.53;;;19.24;100.00
10079;BME280;5078;42.544;22.966;2023-06-22T04:19:08;94364.63;;;19.11;100.00
10079;BME280;5078;42.544;22.966;2023-06-22T04:21:39;94366.09;;;19.38;100.00
10079;BME280;5078;42.544;22.966;2023-06-22T04:24:06;94370.03;;;20.18;99.55
10079;BME280;5078;42.544;22.966;2023-06-22T04:26:33;94363.72;;;20.06;97.18
10079;BME280;5078;42.544;22.966;2023-06-22T04:29:02;94371.13;;;20.10;97.49
10079;BME280;5078;42.544;22.966;2023-06-22T04:31:30;94365.16;;;20.08;98.16
10079;BME280;5078;42.544;22.966;2023-06-22T04:34:02;94375.41;;;20.18;100.00
10079;BME280;5078;42.544;22.966;2023-06-22T04:36:34;94366.47;;;20.79;94.00
10079;BME280;5078;42.544;22.966;2023-06-22T04:39:06;94375.25;;;21.65;85.61
10079;BME280;5078;42.544;22.966;2023-06-22T04:41:35;94374.06;;;22.27;79.86
10079;BME280;5078;42.544;22.966;2023-06-22T04:44:11;94368.00;;;22.01;80.58
10079;BME280;5078;42.544;22.966;2023-06-22T04:46:38;94366.03;;;22.08;80.35
10079;BME280;5078;42.544;22.966;2023-06-22T04:49:06;94358.72;;;22.56;77.65
10079;BME280;5078;42.544;22.966;2023-06-22T04:51:39;94377.63;;;23.20;73.43
10079;BME280;5078;42.544;22.966;2023-06-22T04:54:06;94384.19;;;23.53;72.38
10079;BME280;5078;42.544;22.966;2023-06-22T04:56:33;94382.69;;;23.45;71.37
10079;BME280;5078;42.544;22.966;2023-06-22T04:59:00;94383.25;;;23.01;73.96
10079;BME280;5078;42.544;22.966;2023-06-22T05:01:28;94385.25;;;23.80;69.66
10079;BME280;5078;42.544;22.966;2023-06-22T05:03:56;94372.75;;;24.47;65.47
10079;BME280;5078;42.544;22.966;2023-06-22T05:06:24;94383.44;;;24.37;65.23
10079;BME280;5078;42.544;22.966;2023-06-22T05:08:53;94382.22;;;24.10;68.14
10079;BME280;5078;42.544;22.966;2023-06-22T05:11:23;94377.06;;;24.09;68.73
10079;BME280;5078;42.544;22.966;2023-06-22T05:13:49;94374.13;;;23.36;74.13
10079;BME280;5078;42.544;22.966;2023-06-22T05:16:16;94380.50;;;23.87;70.80
10079;BME280;5078;42.544;22.966;2023-06-22T05:18:43;94367.44;;;23.84;69.63
10079;BME280;5078;42.544;22.966;2023-06-22T05:21:09;94363.09;;;24.17;69.56
10079;BME280;5078;42.544;22.966;2023-06-22T05:23:36;94369.81;;;24.15;67.35
10079;BME280;5078;42.544;22.966;2023-06-22T05:26:05;94356.91;;;24.78;64.43
10079;BME280;5078;42.544;22.966;2023-06-22T05:28:34;94365.53;;;24.19;67.86
10079;BME280;5078;42.544;22.966;2023-06-22T05:31:01;94356.75;;;23.78;71.30
10079;BME280;5078;42.544;22.966;2023-06-22T05:33:29;94364.88;;;24.45;68.88
10079;BME280;5078;42.544;22.966;2023-06-22T05:35:56;94373.41;;;24.37;67.59
10079;BME280;5078;42.544;22.966;2023-06-22T05:38:22;94380.78;;;24.59;65.57
10079;BME280;5078;42.544;22.966;2023-06-22T05:40:49;94377.72;;;24.94;66.23
10079;BME280;5078;42.544;22.966;2023-06-22T05:43:17;94384.91;;;24.27;70.75
10079;BME280;5078;42.544;22.966;2023-06-22T05:45:44;94386.81;;;25.27;63.63
10079;BME280;5078;42.544;22.966;2023-06-22T05:48:10;94385.66;;;25.45;64.39
10079;BME280;5078;42.544;22.966;2023-06-22T05:50:37;94393.00;;;25.22;60.48
10079;BME280;5078;42.544;22.966;2023-06-22T05:53:04;94385.16;;;25.26;61.70
10079;BME280;5078;42.544;22.966;2023-06-22T05:55:32;94385.50;;;25.29;61.27
10079;BME280;5078;42.544;22.966;2023-06-22T05:57:58;94367.22;;;25.47;59.43
10079;BME280;5078;42.544;22.966;2023-06-22T06:00:27;94378.84;;;25.42;58.09
10079;BME280;5078;42.544;22.966;2023-06-22T06:02:53;94380.69;;;25.14;62.99
10079;BME280;5078;42.544;22.966;2023-06-22T06:05:20;94371.03;;;24.80;63.98
10079;BME280;5078;42.544;22.966;2023-06-22T06:07:49;94378.38;;;25.77;61.75
10079;BME280;5078;42.544;22.966;2023-06-22T06:10:16;94366.41;;;26.06;58.57
10079;BME280;5078;42.544;22.966;2023-06-22T06:12:42;94362.53;;;26.29;56.21
10079;BME280;5078;42.544;22.966;2023-06-22T06:15:09;94373.22;;;26.45;55.78
10079;BME280;5078;42.544;22.966;2023-06-22T06:17:45;94369.72;;;26.98;53.77
10079;BME280;5078;42.544;22.966;2023-06-22T06:20:12;94368.28;;;26.37;55.68
10079;BME280;5078;42.544;22.966;2023-06-22T06:22:39;94364.38;;;26.65;55.36
10079;BME280;5078;42.544;22.966;2023-06-22T06:25:06;94372.63;;;26.81;55.11
10079;BME280;5078;42.544;22.966;2023-06-22T06:27:33;94370.13;;;26.69;54.67
10079;BME280;5078;42.544;22.966;2023-06-22T06:30:00;94360.66;;;26.77;55.23
10079;BME280;5078;42.544;22.966;2023-06-22T06:32:27;94364.56;;;26.96;55.34
10079;BME280;5078;42.544;22.966;2023-06-22T06:34:55;94366.38;;;26.80;57.33
10079;BME280;5078;42.544;22.966;2023-06-22T06:37:22;94353.84;;;27.42;53.88
10079;BME280;5078;42.544;22.966;2023-06-22T06:39:48;94366.34;;;27.33;55.61
10079;BME280;5078;42.544;22.966;2023-06-22T06:42:15;94363.09;;;25.98;60.19
10079;BME280;5078;42.544;22.966;2023-06-22T06:44:42;94361.44;;;26.72;59.45
10079;BME280;5078;42.544;22.966;2023-06-22T06:47:08;94359.88;;;27.65;56.12
10079;BME280;5078;42.544;22.966;2023-06-22T06:49:35;94349.28;;;27.73;53.67
10079;BME280;5078;42.544;22.966;2023-06-22T06:52:05;94354.97;;;27.67;54.19
10079;BME280;5078;42.544;22.966;2023-06-22T06:54:32;94358.03;;;27.86;53.91
10079;BME280;5078;42.544;22.966;2023-06-22T06:56:58;94344.94;;;27.93;54.09
10079;BME280;5078;42.544;22.966;2023-06-22T06:59:25;94364.97;;;27.30;57.62
10079;BME280;5078;42.544;22.966;2023-06-22T07:01:52;94359.28;;;27.47;58.15
10079;BME280;5078;42.544;22.966;2023-06-22T07:04:18;94365.94;;;27.92;56.12
10079;BME280;5078;42.544;22.966;2023-06-22T07:06:45;94362.59;;;27.65;56.76
10079;BME280;5078;42.544;22.966;2023-06-22T07:09:13;94344.28;;;27.35;57.18
10079;BME280;5078;42.544;22.966;2023-06-22T07:11:40;94357.19;;;26.92;60.17
10079;BME280;5078;42.544;22.966;2023-06-22T07:14:07;94354.09;;;26.73;62.07
10079;BME280;5078;42.544;22.966;2023-06-22T07:16:33;94364.44;;;27.23;59.20
10079;BME280;5078;42.544;22.966;2023-06-22T07:19:00;94353.94;;;27.00;60.16
10079;BME280;5078;42.544;22.966;2023-06-22T07:21:27;94342.38;;;27.40;59.30
10079;BME280;5078;42.544;22.966;2023-06-22T07:23:53;94349.03;;;27.85;57.55
10079;BME280;5078;42.544;22.966;2023-06-22T07:26:22;94349.31;;;28.09;57.82
10079;BME280;5078;42.544;22.966;2023-06-22T07:28:48;94345.19;;;28.32;55.75
10079;BME280;5078;42.544;22.966;2023-06-22T07:31:16;94347.13;;;28.22;55.74
10079;BME280;5078;42.544;22.966;2023-06-22T07:33:42;94353.66;;;27.95;57.01
10079;BME280;5078;42.544;22.966;2023-06-22T07:36:09;94350.13;;;28.51;57.15
10079;BME280;5078;42.544;22.966;2023-06-22T07:38:36;94357.75;;;28.54;56.50
10079;BME280;5078;42.544;22.966;2023-06-22T07:41:03;94353.81;;;29.56;52.56
10079;BME280;5078;42.544;22.966;2023-06-22T07:43:32;94356.84;;;29.54;52.28
10079;BME280;5078;42.544;22.966;2023-06-22T07:45:59;94357.47;;;29.91;50.53
10079;BME280;5078;42.544;22.966;2023-06-22T07:48:26;94356.41;;;29.32;52.37
10079;BME280;5078;42.544;22.966;2023-06-22T07:50:53;94354.91;;;29.99;51.05
10079;BME280;5078;42.544;22.966;2023-06-22T07:53:20;94354.22;;;30.18;51.38
10079;BME280;5078;42.544;22.966;2023-06-22T07:55:46;94349.00;;;30.56;50.29
10079;BME280;5078;42.544;22.966;2023-06-22T07:58:13;94349.97;;;31.18;48.00
10079;BME280;5078;42.544;22.966;2023-06-22T08:00:42;94347.78;;;31.15;47.96
10079;BME280;5078;42.544;22.966;2023-06-22T08:03:09;94347.72;;;31.82;46.73
10079;BME280;5078;42.544;22.966;2023-06-22T08:05:35;94350.34;;;31.30;46.37
10079;BME280;5078;42.544;22.966;2023-06-22T08:08:02;94333.13;;;30.52;49.98
10079;BME280;5078;42.544;22.966;2023-06-22T08:10:29;94335.13;;;31.43;47.25
10079;BME280;5078;42.544;22.966;2023-06-22T08:12:56;94332.53;;;31.90;47.36
10079;BME280;5078;42.544;22.966;2023-06-22T08:15:22;94331.19;;;31.06;47.08
10079;BME280;5078;42.544;22.966;2023-06-22T08:17:50;94326.06;;;30.76;47.66
10079;BME280;5078;42.544;22.966;2023-06-22T08:20:18;94318.78;;;30.37;48.54
10079;BME280;5078;42.544;22.966;2023-06-22T08:22:44;94319.91;;;30.89;47.72
10079;BME280;5078;42.544;22.966;2023-06-22T08:25:11;94319.81;;;31.18;47.02
10079;BME280;5078;42.544;22.966;2023-06-22T08:27:38;94328.06;;;31.75;45.01
10079;BME280;5078;42.544;22.966;2023-06-22T08:30:06;94297.41;;;31.54;45.28
10079;BME280;5078;42.544;22.966;2023-06-22T08:32:33;94303.66;;;32.30;43.07
10079;BME280;5078;42.544;22.966;2023-06-22T08:35:02;94315.31;;;32.69;42.67
10079;BME280;5078;42.544;22.966;2023-06-22T08:37:29;94308.53;;;33.07;41.30
10079;BME280;5078;42.544;22.966;2023-06-22T08:39:57;94315.03;;;32.98;41.36
10079;BME280;5078;42.544;22.966;2023-06-22T08:42:23;94303.81;;;33.22;40.08
10079;BME280;5078;42.544;22.966;2023-06-22T08:44:51;94294.59;;;33.18;38.50
10079;BME280;5078;42.544;22.966;2023-06-22T08:47:18;94296.59;;;33.12;37.81
10079;BME280;5078;42.544;22.966;2023-06-22T08:49:44;94300.84;;;33.46;38.73
10079;BME280;5078;42.544;22.966;2023-06-22T08:52:14;94306.00;;;33.98;37.03
10079;BME280;5078;42.544;22.966;2023-06-22T08:54:40;94303.09;;;33.58;38.10
10079;BME280;5078;42.544;22.966;2023-06-22T08:57:07;94299.88;;;33.28;37.86
10079;BME280;5078;42.544;22.966;2023-06-22T08:59:34;94296.28;;;33.55;38.16
10079;BME280;5078;42.544;22.966;2023-06-22T09:02:01;94300.13;;;33.90;37.42
10079;BME280;5078;42.544;22.966;2023-06-22T09:04:27;94292.66;;;33.68;36.52
10079;BME280;5078;42.544;22.966;2023-06-22T09:06:54;94289.53;;;34.06;35.80
10079;BME280;5078;42.544;22.966;2023-06-22T09:09:22;94296.56;;;33.90;36.44
10079;BME280;5078;42.544;22.966;2023-06-22T09:11:49;94286.69;;;33.53;36.20
10079;BME280;5078;42.544;22.966;2023-06-22T09:14:16;94289.09;;;33.68;36.10
10079;BME280;5078;42.544;22.966;2023-06-22T09:16:42;94291.09;;;33.12;34.99
10079;BME280;5078;42.544;22.966;2023-06-22T09:19:09;94292.03;;;33.71;34.87
10079;BME280;5078;42.544;22.966;2023-06-22T09:21:36;94289.34;;;33.58;34.26
10079;BME280;5078;42.544;22.966;2023-06-22T09:26:49;94293.16;;;32.93;37.45
10079;BME280;5078;42.544;22.966;2023-06-22T09:29:35;94288.88;;;32.86;36.59
10079;BME280;5078;42.544;22.966;2023-06-22T09:32:19;94289.38;;;32.61;36.60
10079;BME280;5078;42.544;22.966;2023-06-22T09:34:46;94291.41;;;33.24;37.26
10079;BME280;5078;42.544;22.966;2023-06-22T09:37:12;94297.00;;;32.64;38.38
10079;BME280;5078;42.544;22.966;2023-06-22T09:39:39;94294.47;;;32.68;37.31
10079;BME280;5078;42.544;22.966;2023-06-22T09:42:08;94289.72;;;33.51;36.70
10079;BME280;5078;42.544;22.966;2023-06-22T09:44:34;94284.41;;;32.91;35.29
10079;BME280;5078;42.544;22.966;2023-06-22T09:47:01;94284.00;;;32.83;34.69
10079;BME280;5078;42.544;22.966;2023-06-22T09:49:28;94303.31;;;31.80;36.35
10079;BME280;5078;42.544;22.966;2023-06-22T09:51:55;94297.25;;;32.02;37.53
10079;BME280;5078;42.544;22.966;2023-06-22T09:54:22;94300.13;;;31.92;38.23
10079;BME280;5078;42.544;22.966;2023-06-22T09:56:49;94293.13;;;32.51;37.50
10079;BME280;5078;42.544;22.966;2023-06-22T09:59:17;94286.97;;;32.40;36.17
10079;BME280;5078;42.544;22.966;2023-06-22T10:01:44;94285.69;;;32.52;37.30
10079;BME280;5078;42.544;22.966;2023-06-22T10:04:11;94284.97;;;32.60;37.45
10079;BME280;5078;42.544;22.966;2023-06-22T10:06:37;94291.09;;;32.57;39.30
10079;BME280;5078;42.544;22.966;2023-06-22T10:09:06;94287.78;;;32.41;38.61
10079;BME280;5078;42.544;22.966;2023-06-22T10:11:32;94286.72;;;32.56;37.77
10079;BME280;5078;42.544;22.966;2023-06-22T10:14:00;94282.63;;;32.07;39.43
10079;BME280;5078;42.544;22.966;2023-06-22T10:16:31;94273.34;;;32.02;40.33
10079;BME280;5078;42.544;22.966;2023-06-22T10:18:58;94281.75;;;32.25;39.45
10079;BME280;5078;42.544;22.966;2023-06-22T10:21:25;94266.94;;;32.26;39.22
10079;BME280;5078;42.544;22.966;2023-06-22T10:23:52;94267.41;;;32.75;40.18
10079;BME280;5078;42.544;22.966;2023-06-22T10:26:19;94270.38;;;32.18;40.36
10079;BME280;5078;42.544;22.966;2023-06-22T10:28:46;94267.31;;;31.30;40.43
10079;BME280;5078;42.544;22.966;2023-06-22T10:31:13;94269.47;;;31.71;40.37
10079;BME280;5078;42.544;22.966;2023-06-22T10:33:43;94266.41;;;32.24;40.03
10079;BME280;5078;42.544;22.966;2023-06-22T10:36:10;94261.78;;;32.52;38.56
10079;BME280;5078;42.544;22.966;2023-06-22T10:38:37;94249.19;;;32.93;39.13
10079;BME280;5078;42.544;22.966;2023-06-22T10:41:04;94248.09;;;32.66;38.77
10079;BME280;5078;42.544;22.966;2023-06-22T10:43:30;94256.06;;;32.35;39.20
10079;BME280;5078;42.544;22.966;2023-06-22T10:45:57;94250.31;;;32.17;39.23
10079;BME280;5078;42.544;22.966;2023-06-22T10:48:24;94256.66;;;32.18;39.69
10079;BME280;5078;42.544;22.966;2023-06-22T10:50:52;94259.25;;;31.57;39.94
10079;BME280;5078;42.544;22.966;2023-06-22T10:53:20;94251.22;;;31.80;40.74
10079;BME280;5078;42.544;22.966;2023-06-22T10:55:46;94251.19;;;32.45;39.02
10079;BME280;5078;42.544;22.966;2023-06-22T10:58:13;94259.31;;;32.37;40.48
10079;BME280;5078;42.544;22.966;2023-06-22T11:00:40;94253.09;;;32.31;39.91
10079;BME280;5078;42.544;22.966;2023-06-22T11:03:07;94259.78;;;32.25;40.55
10079;BME280;5078;42.544;22.966;2023-06-22T11:05:33;94261.06;;;32.00;40.30
10079;BME280;5078;42.544;22.966;2023-06-22T11:08:02;94231.72;;;32.14;39.80
10079;BME280;5078;42.544;22.966;2023-06-22T11:10:28;94246.50;;;32.18;38.28
10079;BME280;5078;42.544;22.966;2023-06-22T11:12:55;94243.25;;;32.30;39.62
10079;BME280;5078;42.544;22.966;2023-06-22T11:15:23;94238.59;;;32.31;40.55
10079;BME280;5078;42.544;22.966;2023-06-22T11:17:50;94249.53;;;32.17;40.53
10079;BME280;5078;42.544;22.966;2023-06-22T11:20:16;94244.81;;;32.04;39.60
10079;BME280;5078;42.544;22.966;2023-06-22T11:22:43;94247.28;;;31.86;40.13
10079;BME280;5078;42.544;22.966;2023-06-22T11:25:11;94239.88;;;31.87;40.21
10079;BME280;5078;42.544;22.966;2023-06-22T11:27:38;94237.97;;;32.34;38.69
10079;BME280;5078;42.544;22.966;2023-06-22T11:30:06;94236.28;;;32.05;38.50
10079;BME280;5078;42.544;22.966;2023-06-22T11:32:33;94223.69;;;32.04;38.78
10079;BME280;5078;42.544;22.966;2023-06-22T11:35:00;94225.09;;;32.01;38.44
10079;BME280;5078;42.544;22.966;2023-06-22T11:37:27;94231.53;;;31.78;39.49
10079;BME280;5078;42.544;22.966;2023-06-22T11:39:54;94232.47;;;30.92;39.92
10079;BME280;5078;42.544;22.966;2023-06-22T11:42:22;94222.75;;;31.05;39.50
10079;BME280;5078;42.544;22.966;2023-06-22T11:44:50;94231.03;;;31.57;38.66
10079;BME280;5078;42.544;22.966;2023-06-22T11:47:17;94222.78;;;32.09;38.73
10079;BME280;5078;42.544;22.966;2023-06-22T11:49:44;94225.28;;;32.38;39.26
10079;BME280;5078;42.544;22.966;2023-06-22T11:52:10;94220.84;;;32.56;38.13
10079;BME280;5078;42.544;22.966;2023-06-22T11:54:37;94230.84;;;32.19;38.63
10079;BME280;5078;42.544;22.966;2023-06-22T11:57:04;94228.59;;;32.35;38.50
10079;BME280;5078;42.544;22.966;2023-06-22T11:59:33;94225.41;;;32.60;37.78
10079;BME280;5078;42.544;22.966;2023-06-22T12:01:59;94215.22;;;32.88;37.17
10079;BME280;5078;42.544;22.966;2023-06-22T12:04:26;94218.47;;;32.91;37.12
10079;BME280;5078;42.544;22.966;2023-06-22T12:06:53;94213.78;;;33.05;36.01
10079;BME280;5078;42.544;22.966;2023-06-22T12:09:20;94220.47;;;32.16;35.60
10079;BME280;5078;42.544;22.966;2023-06-22T12:11:46;94201.63;;;32.56;35.68
10079;BME280;5078;42.544;22.966;2023-06-22T12:14:13;94203.31;;;32.38;35.34
10079;BME280;5078;42.544;22.966;2023-06-22T12:16:41;94203.69;;;32.45;36.22
10079;BME280;5078;42.544;22.966;2023-06-22T12:19:09;94197.13;;;32.60;35.96
10079;BME280;5078;42.544;22.966;2023-06-22T12:21:36;94203.41;;;32.88;36.75
10079;BME280;5078;42.544;22.966;2023-06-22T12:24:04;94210.03;;;32.73;35.67
10079;BME280;5078;42.544;22.966;2023-06-22T12:26:31;94212.75;;;32.18;36.11
10079;BME280;5078;42.544;22.966;2023-06-22T12:28:58;94215.06;;;32.11;37.14
10079;BME280;5078;42.544;22.966;2023-06-22T12:31:28;94194.66;;;32.44;35.27
10079;BME280;5078;42.544;22.966;2023-06-22T12:33:56;94211.00;;;31.75;37.06
10079;BME280;5078;42.544;22.966;2023-06-22T12:36:22;94212.31;;;31.45;36.20
10079;BME280;5078;42.544;22.966;2023-06-22T12:38:49;94204.38;;;31.95;37.50
10079;BME280;5078;42.544;22.966;2023-06-22T12:41:17;94205.53;;;32.22;38.20
10079;BME280;5078;42.544;22.966;2023-06-22T12:43:44;94203.50;;;32.28;35.91
10079;BME280;5078;42.544;22.966;2023-06-22T12:46:10;94196.47;;;32.08;36.61
10079;BME280;5078;42.544;22.966;2023-06-22T12:48:37;94187.94;;;31.95;36.87
10079;BME280;5078;42.544;22.966;2023-06-22T12:51:09;94199.31;;;31.32;37.31
10079;BME280;5078;42.544;22.966;2023-06-22T12:53:36;94210.16;;;30.85;37.42
10079;BME280;5078;42.544;22.966;2023-06-22T12:56:03;94198.88;;;30.87;37.95
10079;BME280;5078;42.544;22.966;2023-06-22T12:58:30;94195.00;;;30.45;39.40
10079;BME280;5078;42.544;22.966;2023-06-22T13:00:56;94211.53;;;30.10;41.16
10079;BME280;5078;42.544;22.966;2023-06-22T13:03:23;94202.38;;;28.83;46.04